sensor_id;sensor_type;location;lat;lon;timestamp;P1;durP1;ratioP1;P2;durP2;ratioP2
81807;SDS011;71241;13.676;100.700;2024-03-06T00:00:53;25.15;;;18.48;;
81807;SDS011;71241;13.676;100.700;2024-03-06T00:03:24;25.25;;;16.23;;
81807;SDS011;71241;13.676;100.700;2024-03-06T00:05:54;23.05;;;16.40;;
81807;SDS011;71241;13.676;100.700;2024-03-06T00:08:28;24.77;;;18.35;;
81807;SDS011;71241;13.676;100.700;2024-03-06T00:10:59;25.55;;;15.70;;
81807;SDS011;71241;13.676;100.700;2024-03-06T00:13:29;25.65;;;15.57;;
81807;SDS011;71241;13.676;100.700;2024-03-06T00:16:00;23.90;;;15.07;;
81807;SDS011;71241;13.676;100.700;2024-03-06T00:18:31;23.65;;;15.57;;
81807;SDS011;71241;13.676;100.700;2024-03-06T00:21:01;20.65;;;14.70;;
81807;SDS011;71241;13.676;100.700;2024-03-06T00:23:34;24.30;;;16.42;;
81807;SDS011;71241;13.676;100.700;2024-03-06T00:26:06;22.85;;;15.07;;
81807;SDS011;71241;13.676;100.700;2024-03-06T00:28:37;23.63;;;14.90;;
81807;SDS011;71241;13.676;100.700;2024-03-06T00:31:07;26.73;;;14.20;;
81807;SDS011;71241;13.676;100.700;2024-03-06T00:33:38;20.70;;;14.73;;
81807;SDS011;71241;13.676;100.700;2024-03-06T00:36:09;25.15;;;18.80;;
81807;SDS011;71241;13.676;100.700;2024-03-06T00:38:42;19.58;;;14.15;;
81807;SDS011;71241;13.676;100.700;2024-03-06T00:41:12;20.27;;;14.18;;
81807;SDS011;71241;13.676;100.700;2024-03-06T00:43:43;22.05;;;14.75;;
81807;SDS011;71241;13.676;100.700;2024-03-06T00:46:14;24.00;;;16.30;;
81807;SDS011;71241;13.676;100.700;2024-03-06T00:48:45;24.90;;;16.52;;
81807;SDS011;71241;13.676;100.700;2024-03-06T00:51:15;24.88;;;15.25;;
81807;SDS011;71241;13.676;100.700;2024-03-06T00:54:01;23.67;;;16.67;;
81807;SDS011;71241;13.676;100.700;2024-03-06T00:56:31;24.88;;;15.98;;
81807;SDS011;71241;13.676;100.700;2024-03-06T00:59:02;28.92;;;21.48;;
81807;SDS011;71241;13.676;100.700;2024-03-06T01:01:32;25.60;;;19.45;;
81807;SDS011;71241;13.676;100.700;2024-03-06T01:04:03;28.13;;;20.17;;
81807;SDS011;71241;13.676;100.700;2024-03-06T01:06:34;25.63;;;15.93;;
81807;SDS011;71241;13.676;100.700;2024-03-06T01:09:07;20.98;;;14.80;;
81807;SDS011;71241;13.676;100.700;2024-03-06T01:11:39;22.58;;;15.70;;
81807;SDS011;71241;13.676;100.700;2024-03-06T01:14:10;29.02;;;18.08;;
81807;SDS011;71241;13.676;100.700;2024-03-06T01:19:12;24.10;;;15.95;;
81807;SDS011;71241;13.676;100.700;2024-03-06T01:21:45;27.73;;;17.85;;
81807;SDS011;71241;13.676;100.700;2024-03-06T01:24:20;24.48;;;17.95;;
81807;SDS011;71241;13.676;100.700;2024-03-06T01:26:51;27.55;;;17.27;;
81807;SDS011;71241;13.676;100.700;2024-03-06T01:29:22;27.67;;;17.40;;
81807;SDS011;71241;13.676;100.700;2024-03-06T01:31:52;29.85;;;18.08;;
81807;SDS011;71241;13.676;100.700;2024-03-06T01:34:23;24.73;;;18.17;;
81807;SDS011;71241;13.676;100.700;2024-03-06T01:36:54;24.10;;;18.05;;
81807;SDS011;71241;13.676;100.700;2024-03-06T01:39:26;23.20;;;17.05;;
81807;SDS011;71241;13.676;100.700;2024-03-06T01:41:57;24.50;;;16.40;;
81807;SDS011;71241;13.676;100.700;2024-03-06T01:44:28;28.05;;;19.00;;
81807;SDS011;71241;13.676;100.700;2024-03-06T01:46:58;28.88;;;16.45;;
81807;SDS011;71241;13.676;100.700;2024-03-06T01:49:29;21.88;;;15.00;;
81807;SDS011;71241;13.676;100.700;2024-03-06T01:52:11;21.55;;;16.15;;
81807;SDS011;71241;13.676;100.700;2024-03-06T01:57:17;23.48;;;17.45;;
81807;SDS011;71241;13.676;100.700;2024-03-06T01:59:48;29.42;;;15.80;;
81807;SDS011;71241;13.676;100.700;2024-03-06T02:04:49;27.75;;;19.45;;
81807;SDS011;71241;13.676;100.700;2024-03-06T02:07:22;23.08;;;17.95;;
81807;SDS011;71241;13.676;100.700;2024-03-06T02:09:55;31.75;;;20.35;;
81807;SDS011;71241;13.676;100.700;2024-03-06T02:12:26;26.42;;;19.48;;
81807;SDS011;71241;13.676;100.700;2024-03-06T02:14:57;26.73;;;17.52;;
81807;SDS011;71241;13.676;100.700;2024-03-06T02:17:28;25.10;;;18.30;;
81807;SDS011;71241;13.676;100.700;2024-03-06T02:19:58;22.85;;;15.27;;
81807;SDS011;71241;13.676;100.700;2024-03-06T02:22:30;18.17;;;12.00;;
81807;SDS011;71241;13.676;100.700;2024-03-06T02:25:03;16.10;;;13.05;;
81807;SDS011;71241;13.676;100.700;2024-03-06T02:27:34;16.85;;;13.55;;
81807;SDS011;71241;13.676;100.700;2024-03-06T02:30:06;20.55;;;13.23;;
81807;SDS011;71241;13.676;100.700;2024-03-06T02:32:37;16.95;;;12.38;;
81807;SDS011;71241;13.676;100.700;2024-03-06T02:35:08;19.90;;;14.57;;
81807;SDS011;71241;13.676;100.700;2024-03-06T02:37:40;16.80;;;12.32;;
81807;SDS011;71241;13.676;100.700;2024-03-06T02:40:13;17.05;;;12.15;;
81807;SDS011;71241;13.676;100.700;2024-03-06T02:42:43;16.42;;;11.35;;
81807;SDS011;71241;13.676;100.700;2024-03-06T02:45:14;15.18;;;12.98;;
81807;SDS011;71241;13.676;100.700;2024-03-06T02:47:44;14.32;;;11.38;;
81807;SDS011;71241;13.676;100.700;2024-03-06T02:50:17;14.75;;;10.55;;
81807;SDS011;71241;13.676;100.700;2024-03-06T02:52:51;15.80;;;10.90;;
81807;SDS011;71241;13.676;100.700;2024-03-06T02:57:53;12.50;;;11.23;;
81807;SDS011;71241;13.676;100.700;2024-03-06T03:00:24;15.98;;;12.23;;
81807;SDS011;71241;13.676;100.700;2024-03-06T03:02:56;18.27;;;11.18;;
81807;SDS011;71241;13.676;100.700;2024-03-06T03:05:28;14.75;;;11.52;;
81807;SDS011;71241;13.676;100.700;2024-03-06T03:08:01;17.85;;;14.27;;
81807;SDS011;71241;13.676;100.700;2024-03-06T03:10:33;16.80;;;11.88;;
81807;SDS011;71241;13.676;100.700;2024-03-06T03:13:03;16.08;;;11.60;;
81807;SDS011;71241;13.676;100.700;2024-03-06T03:15:34;18.40;;;11.90;;
81807;SDS011;71241;13.676;100.700;2024-03-06T03:18:04;16.67;;;12.73;;
81807;SDS011;71241;13.676;100.700;2024-03-06T03:20:35;18.85;;;13.20;;
81807;SDS011;71241;13.676;100.700;2024-03-06T03:23:07;16.98;;;11.18;;
81807;SDS011;71241;13.676;100.700;2024-03-06T03:25:41;17.75;;;12.35;;
81807;SDS011;71241;13.676;100.700;2024-03-06T03:28:12;16.80;;;12.43;;
81807;SDS011;71241;13.676;100.700;2024-03-06T03:30:43;16.02;;;12.88;;
81807;SDS011;71241;13.676;100.700;2024-03-06T03:33:13;14.23;;;11.05;;
81807;SDS011;71241;13.676;100.700;2024-03-06T03:35:44;13.68;;;11.73;;
81807;SDS011;71241;13.676;100.700;2024-03-06T03:38:16;15.35;;;12.85;;
81807;SDS011;71241;13.676;100.700;2024-03-06T03:40:47;16.75;;;12.68;;
81807;SDS011;71241;13.676;100.700;2024-03-06T03:43:17;13.90;;;11.25;;
81807;SDS011;71241;13.676;100.700;2024-03-06T03:45:48;15.15;;;11.20;;
81807;SDS011;71241;13.676;100.700;2024-03-06T03:48:18;15.20;;;12.50;;
81807;SDS011;71241;13.676;100.700;2024-03-06T03:50:49;17.77;;;13.18;;
81807;SDS011;71241;13.676;100.700;2024-03-06T03:53:21;14.40;;;12.10;;
81807;SDS011;71241;13.676;100.700;2024-03-06T03:55:52;14.43;;;11.52;;
81807;SDS011;71241;13.676;100.700;2024-03-06T03:58:23;13.50;;;10.65;;
81807;SDS011;71241;13.676;100.700;2024-03-06T04:00:53;14.85;;;11.45;;
81807;SDS011;71241;13.676;100.700;2024-03-06T04:03:24;15.85;;;11.73;;
81807;SDS011;71241;13.676;100.700;2024-03-06T04:05:55;16.17;;;12.98;;
81807;SDS011;71241;13.676;100.700;2024-03-06T04:08:27;16.90;;;11.25;;
81807;SDS011;71241;13.676;100.700;2024-03-06T04:13:27;15.80;;;12.25;;
81807;SDS011;71241;13.676;100.700;2024-03-06T04:15:58;16.75;;;11.82;;
81807;SDS011;71241;13.676;100.700;2024-03-06T04:18:29;16.20;;;11.45;;
81807;SDS011;71241;13.676;100.700;2024-03-06T04:21:04;13.32;;;11.93;;
81807;SDS011;71241;13.676;100.700;2024-03-06T04:23:37;14.68;;;11.25;;
81807;SDS011;71241;13.676;100.700;2024-03-06T04:26:07;14.25;;;12.10;;
81807;SDS011;71241;13.676;100.700;2024-03-06T04:28:38;13.95;;;11.35;;
81807;SDS011;71241;13.676;100.700;2024-03-06T04:31:08;14.52;;;10.80;;
81807;SDS011;71241;13.676;100.700;2024-03-06T04:33:40;13.95;;;11.35;;
81807;SDS011;71241;13.676;100.700;2024-03-06T04:36:11;15.52;;;11.75;;
81807;SDS011;71241;13.676;100.700;2024-03-06T04:38:43;14.55;;;11.40;;
81807;SDS011;71241;13.676;100.700;2024-03-06T04:41:18;15.48;;;12.15;;
81807;SDS011;71241;13.676;100.700;2024-03-06T04:43:49;13.70;;;11.88;;
81807;SDS011;71241;13.676;100.700;2024-03-06T04:46:20;19.00;;;12.27;;
81807;SDS011;71241;13.676;100.700;2024-03-06T04:48:50;14.15;;;11.75;;
81807;SDS011;71241;13.676;100.700;2024-03-06T04:51:21;13.65;;;10.98;;
81807;SDS011;71241;13.676;100.700;2024-03-06T04:53:53;17.48;;;12.50;;
81807;SDS011;71241;13.676;100.700;2024-03-06T04:56:24;13.80;;;11.88;;
81807;SDS011;71241;13.676;100.700;2024-03-06T04:58:56;13.02;;;11.65;;
81807;SDS011;71241;13.676;100.700;2024-03-06T05:01:32;13.38;;;11.50;;
81807;SDS011;71241;13.676;100.700;2024-03-06T05:04:02;14.85;;;10.32;;
81807;SDS011;71241;13.676;100.700;2024-03-06T05:06:49;13.98;;;11.43;;
81807;SDS011;71241;13.676;100.700;2024-03-06T05:09:37;14.75;;;11.48;;
81807;SDS011;71241;13.676;100.700;2024-03-06T05:12:25;13.48;;;10.20;;
81807;SDS011;71241;13.676;100.700;2024-03-06T05:15:12;13.73;;;11.40;;
81807;SDS011;71241;13.676;100.700;2024-03-06T05:18:00;15.93;;;10.82;;
81807;SDS011;71241;13.676;100.700;2024-03-06T05:20:46;15.57;;;12.77;;
81807;SDS011;71241;13.676;100.700;2024-03-06T05:23:33;13.45;;;10.95;;
81807;SDS011;71241;13.676;100.700;2024-03-06T05:26:21;13.98;;;10.88;;
81807;SDS011;71241;13.676;100.700;2024-03-06T05:29:07;12.32;;;10.30;;
81807;SDS011;71241;13.676;100.700;2024-03-06T05:31:54;13.02;;;10.68;;
81807;SDS011;71241;13.676;100.700;2024-03-06T05:34:40;14.98;;;10.30;;
81807;SDS011;71241;13.676;100.700;2024-03-06T05:37:27;17.45;;;9.75;;
81807;SDS011;71241;13.676;100.700;2024-03-06T05:40:14;12.63;;;10.18;;
81807;SDS011;71241;13.676;100.700;2024-03-06T05:43:02;13.55;;;9.88;;
81807;SDS011;71241;13.676;100.700;2024-03-06T05:45:48;11.77;;;9.98;;
81807;SDS011;71241;13.676;100.700;2024-03-06T05:48:35;12.45;;;9.70;;
81807;SDS011;71241;13.676;100.700;2024-03-06T05:51:22;12.95;;;9.00;;
81807;SDS011;71241;13.676;100.700;2024-03-06T05:54:08;10.82;;;8.68;;
81807;SDS011;71241;13.676;100.700;2024-03-06T05:56:58;14.90;;;10.05;;
81807;SDS011;71241;13.676;100.700;2024-03-06T05:59:46;13.98;;;9.70;;
81807;SDS011;71241;13.676;100.700;2024-03-06T06:02:17;12.52;;;8.88;;
81807;SDS011;71241;13.676;100.700;2024-03-06T06:04:49;13.50;;;9.40;;
81807;SDS011;71241;13.676;100.700;2024-03-06T06:07:38;12.38;;;9.38;;
81807;SDS011;71241;13.676;100.700;2024-03-06T06:10:09;16.85;;;10.27;;
81807;SDS011;71241;13.676;100.700;2024-03-06T06:12:39;11.57;;;9.85;;
81807;SDS011;71241;13.676;100.700;2024-03-06T06:15:12;11.70;;;9.10;;
81807;SDS011;71241;13.676;100.700;2024-03-06T06:17:43;15.70;;;10.45;;
81807;SDS011;71241;13.676;100.700;2024-03-06T06:20:15;13.30;;;11.20;;
81807;SDS011;71241;13.676;100.700;2024-03-06T06:22:47;11.75;;;9.98;;
81807;SDS011;71241;13.676;100.700;2024-03-06T06:25:17;11.02;;;8.48;;
81807;SDS011;71241;13.676;100.700;2024-03-06T06:27:48;11.73;;;10.38;;
81807;SDS011;71241;13.676;100.700;2024-03-06T06:30:20;10.60;;;8.20;;
81807;SDS011;71241;13.676;100.700;2024-03-06T06:32:51;13.48;;;9.25;;
81807;SDS011;71241;13.676;100.700;2024-03-06T06:35:21;12.63;;;9.80;;
81807;SDS011;71241;13.676;100.700;2024-03-06T06:40:23;14.43;;;12.65;;
81807;SDS011;71241;13.676;100.700;2024-03-06T06:42:54;11.48;;;10.27;;
81807;SDS011;71241;13.676;100.700;2024-03-06T06:45:26;11.32;;;9.50;;
81807;SDS011;71241;13.676;100.700;2024-03-06T06:47:57;13.18;;;10.10;;
81807;SDS011;71241;13.676;100.700;2024-03-06T06:50:27;17.60;;;16.20;;
81807;SDS011;71241;13.676;100.700;2024-03-06T06:52:59;10.02;;;8.20;;
81807;SDS011;71241;13.676;100.700;2024-03-06T06:55:30;11.95;;;9.07;;
81807;SDS011;71241;13.676;100.700;2024-03-06T06:58:01;11.02;;;9.30;;
81807;SDS011;71241;13.676;100.700;2024-03-06T07:00:34;11.05;;;8.52;;
81807;SDS011;71241;13.676;100.700;2024-03-06T07:03:06;14.55;;;8.95;;
81807;SDS011;71241;13.676;100.700;2024-03-06T07:05:37;13.13;;;11.65;;
81807;SDS011;71241;13.676;100.700;2024-03-06T07:08:08;15.13;;;11.32;;
81807;SDS011;71241;13.676;100.700;2024-03-06T07:10:38;12.65;;;9.95;;
81807;SDS011;71241;13.676;100.700;2024-03-06T07:13:09;10.18;;;9.07;;
81807;SDS011;71241;13.676;100.700;2024-03-06T07:15:41;14.93;;;10.48;;
81807;SDS011;71241;13.676;100.700;2024-03-06T07:18:11;13.02;;;9.40;;
81807;SDS011;71241;13.676;100.700;2024-03-06T07:20:42;12.63;;;9.40;;
81807;SDS011;71241;13.676;100.700;2024-03-06T07:23:13;10.20;;;8.45;;
81807;SDS011;71241;13.676;100.700;2024-03-06T07:25:43;12.32;;;10.93;;
81807;SDS011;71241;13.676;100.700;2024-03-06T07:28:14;15.07;;;13.48;;
81807;SDS011;71241;13.676;100.700;2024-03-06T07:30:47;13.43;;;10.40;;
81807;SDS011;71241;13.676;100.700;2024-03-06T07:33:18;14.20;;;10.18;;
81807;SDS011;71241;13.676;100.700;2024-03-06T07:35:48;12.35;;;9.63;;
81807;SDS011;71241;13.676;100.700;2024-03-06T07:38:19;15.65;;;11.85;;
81807;SDS011;71241;13.676;100.700;2024-03-06T07:40:49;14.55;;;11.85;;
81807;SDS011;71241;13.676;100.700;2024-03-06T07:43:20;12.73;;;9.77;;
81807;SDS011;71241;13.676;100.700;2024-03-06T07:45:54;13.82;;;10.43;;
81807;SDS011;71241;13.676;100.700;2024-03-06T07:48:24;11.98;;;10.77;;
81807;SDS011;71241;13.676;100.700;2024-03-06T07:50:55;12.15;;;10.45;;
81807;SDS011;71241;13.676;100.700;2024-03-06T07:53:25;15.25;;;10.40;;
81807;SDS011;71241;13.676;100.700;2024-03-06T07:55:56;13.25;;;10.02;;
81807;SDS011;71241;13.676;100.700;2024-03-06T07:58:28;12.05;;;9.75;;
81807;SDS011;71241;13.676;100.700;2024-03-06T08:01:00;17.15;;;10.07;;
81807;SDS011;71241;13.676;100.700;2024-03-06T08:06:00;11.38;;;9.70;;
81807;SDS011;71241;13.676;100.700;2024-03-06T08:08:32;13.35;;;9.75;;
81807;SDS011;71241;13.676;100.700;2024-03-06T08:11:03;12.15;;;10.50;;
81807;SDS011;71241;13.676;100.700;2024-03-06T08:13:34;11.80;;;9.88;;
81807;SDS011;71241;13.676;100.700;2024-03-06T08:16:07;13.10;;;9.70;;
81807;SDS011;71241;13.676;100.700;2024-03-06T08:18:38;10.55;;;9.38;;
81807;SDS011;71241;13.676;100.700;2024-03-06T08:21:13;11.35;;;9.10;;
81807;SDS011;71241;13.676;100.700;2024-03-06T08:23:43;13.73;;;10.35;;
81807;SDS011;71241;13.676;100.700;2024-03-06T08:26:15;12.48;;;9.50;;
81807;SDS011;71241;13.676;100.700;2024-03-06T08:28:45;14.70;;;9.70;;
81807;SDS011;71241;13.676;100.700;2024-03-06T08:31:18;11.52;;;9.60;;
81807;SDS011;71241;13.676;100.700;2024-03-06T08:33:50;14.52;;;8.38;;
81807;SDS011;71241;13.676;100.700;2024-03-06T08:36:22;14.13;;;10.30;;
81807;SDS011;71241;13.676;100.700;2024-03-06T08:38:53;10.30;;;9.05;;
81807;SDS011;71241;13.676;100.700;2024-03-06T08:41:23;12.68;;;9.23;;
81807;SDS011;71241;13.676;100.700;2024-03-06T08:43:54;10.20;;;9.13;;
81807;SDS011;71241;13.676;100.700;2024-03-06T08:46:28;11.35;;;8.43;;
81807;SDS011;71241;13.676;100.700;2024-03-06T08:49:04;12.05;;;9.38;;
81807;SDS011;71241;13.676;100.700;2024-03-06T08:51:37;12.27;;;9.38;;
81807;SDS011;71241;13.676;100.700;2024-03-06T08:54:08;12.00;;;10.10;;
81807;SDS011;71241;13.676;100.700;2024-03-06T08:56:43;12.77;;;9.43;;
81807;SDS011;71241;13.676;100.700;2024-03-06T08:59:15;13.43;;;8.48;;
81807;SDS011;71241;13.676;100.700;2024-03-06T09:01:48;10.02;;;8.60;;
81807;SDS011;71241;13.676;100.700;2024-03-06T09:04:20;12.02;;;7.95;;
81807;SDS011;71241;13.676;100.700;2024-03-06T09:06:51;11.23;;;9.05;;
81807;SDS011;71241;13.676;100.700;2024-03-06T09:09:22;11.65;;;8.80;;
81807;SDS011;71241;13.676;100.700;2024-03-06T09:11:53;11.57;;;8.95;;
81807;SDS011;71241;13.676;100.700;2024-03-06T09:14:23;11.02;;;8.35;;
81807;SDS011;71241;13.676;100.700;2024-03-06T09:16:55;12.65;;;8.48;;
81807;SDS011;71241;13.676;100.700;2024-03-06T09:19:26;9.70;;;8.50;;
81807;SDS011;71241;13.676;100.700;2024-03-06T09:21:57;8.95;;;7.95;;
81807;SDS011;71241;13.676;100.700;2024-03-06T09:24:27;11.02;;;8.52;;
81807;SDS011;71241;13.676;100.700;2024-03-06T09:26:58;9.95;;;7.93;;
81807;SDS011;71241;13.676;100.700;2024-03-06T09:29:31;13.13;;;8.90;;
81807;SDS011;71241;13.676;100.700;2024-03-06T09:32:06;11.15;;;8.27;;
81807;SDS011;71241;13.676;100.700;2024-03-06T09:34:37;9.77;;;8.52;;
81807;SDS011;71241;13.676;100.700;2024-03-06T09:37:07;10.20;;;8.32;;
81807;SDS011;71241;13.676;100.700;2024-03-06T09:39:39;14.43;;;8.23;;
81807;SDS011;71241;13.676;100.700;2024-03-06T09:42:09;10.00;;;8.63;;
81807;SDS011;71241;13.676;100.700;2024-03-06T09:44:40;9.75;;;8.18;;
81807;SDS011;71241;13.676;100.700;2024-03-06T09:47:12;12.63;;;8.80;;
81807;SDS011;71241;13.676;100.700;2024-03-06T09:49:46;10.50;;;8.25;;
81807;SDS011;71241;13.676;100.700;2024-03-06T09:52:17;12.75;;;8.63;;
81807;SDS011;71241;13.676;100.700;2024-03-06T09:54:47;12.80;;;8.65;;
81807;SDS011;71241;13.676;100.700;2024-03-06T09:57:21;10.82;;;8.52;;
81807;SDS011;71241;13.676;100.700;2024-03-06T09:59:52;14.75;;;9.15;;
81807;SDS011;71241;13.676;100.700;2024-03-06T10:02:28;12.77;;;9.30;;
81807;SDS011;71241;13.676;100.700;2024-03-06T10:05:18;13.32;;;8.32;;
81807;SDS011;71241;13.676;100.700;2024-03-06T10:07:51;13.38;;;9.02;;
81807;SDS011;71241;13.676;100.700;2024-03-06T10:10:22;12.27;;;8.63;;
81807;SDS011;71241;13.676;100.700;2024-03-06T10:12:52;13.05;;;8.57;;
81807;SDS011;71241;13.676;100.700;2024-03-06T10:15:23;11.85;;;9.45;;
81807;SDS011;71241;13.676;100.700;2024-03-06T10:18:13;13.30;;;9.52;;
81807;SDS011;71241;13.676;100.700;2024-03-06T10:20:48;14.45;;;8.75;;
81807;SDS011;71241;13.676;100.700;2024-03-06T10:23:19;12.60;;;8.65;;
81807;SDS011;71241;13.676;100.700;2024-03-06T10:25:50;10.45;;;8.05;;
81807;SDS011;71241;13.676;100.700;2024-03-06T10:28:23;13.73;;;9.20;;
81807;SDS011;71241;13.676;100.700;2024-03-06T10:31:02;11.98;;;8.30;;
81807;SDS011;71241;13.676;100.700;2024-03-06T10:33:38;13.18;;;8.57;;
81807;SDS011;71241;13.676;100.700;2024-03-06T10:36:10;11.18;;;9.10;;
81807;SDS011;71241;13.676;100.700;2024-03-06T10:38:40;12.70;;;9.05;;
81807;SDS011;71241;13.676;100.700;2024-03-06T10:41:14;13.52;;;8.32;;
81807;SDS011;71241;13.676;100.700;2024-03-06T10:43:51;13.98;;;8.75;;
81807;SDS011;71241;13.676;100.700;2024-03-06T10:46:30;12.10;;;8.70;;
81807;SDS011;71241;13.676;100.700;2024-03-06T10:49:06;12.20;;;7.90;;
81807;SDS011;71241;13.676;100.700;2024-03-06T10:51:36;15.13;;;8.57;;
81807;SDS011;71241;13.676;100.700;2024-03-06T10:54:14;15.55;;;9.88;;
81807;SDS011;71241;13.676;100.700;2024-03-06T10:56:45;13.35;;;8.35;;
81807;SDS011;71241;13.676;100.700;2024-03-06T10:59:16;11.75;;;8.35;;
81807;SDS011;71241;13.676;100.700;2024-03-06T11:01:48;10.50;;;8.80;;
81807;SDS011;71241;13.676;100.700;2024-03-06T11:04:21;10.57;;;7.85;;
81807;SDS011;71241;13.676;100.700;2024-03-06T11:06:53;13.48;;;7.60;;
81807;SDS011;71241;13.676;100.700;2024-03-06T11:09:24;14.60;;;11.23;;
81807;SDS011;71241;13.676;100.700;2024-03-06T11:11:59;9.93;;;9.02;;
81807;SDS011;71241;13.676;100.700;2024-03-06T11:14:31;13.38;;;8.52;;
81807;SDS011;71241;13.676;100.700;2024-03-06T11:17:02;10.93;;;7.72;;
81807;SDS011;71241;13.676;100.700;2024-03-06T11:28:33;14.63;;;10.27;;
81807;SDS011;71241;13.676;100.700;2024-03-06T11:31:05;11.15;;;9.70;;
81807;SDS011;71241;13.676;100.700;2024-03-06T11:33:35;12.27;;;10.98;;
81807;SDS011;71241;13.676;100.700;2024-03-06T11:36:18;12.60;;;10.00;;
81807;SDS011;71241;13.676;100.700;2024-03-06T11:38:53;12.60;;;11.32;;
81807;SDS011;71241;13.676;100.700;2024-03-06T11:41:26;16.48;;;15.15;;
81807;SDS011;71241;13.676;100.700;2024-03-06T11:43:59;13.73;;;11.48;;
81807;SDS011;71241;13.676;100.700;2024-03-06T11:46:42;13.48;;;11.82;;
81807;SDS011;71241;13.676;100.700;2024-03-06T11:49:16;15.63;;;14.25;;
81807;SDS011;71241;13.676;100.700;2024-03-06T11:51:51;15.45;;;13.98;;
81807;SDS011;71241;13.676;100.700;2024-03-06T11:54:25;17.77;;;14.10;;
81807;SDS011;71241;13.676;100.700;2024-03-06T11:56:57;17.83;;;16.17;;
81807;SDS011;71241;13.676;100.700;2024-03-06T11:59:28;17.45;;;15.73;;
81807;SDS011;71241;13.676;100.700;2024-03-06T12:02:01;17.92;;;14.15;;
81807;SDS011;71241;13.676;100.700;2024-03-06T12:04:32;16.73;;;15.02;;
81807;SDS011;71241;13.676;100.700;2024-03-06T12:09:37;18.50;;;16.88;;
81807;SDS011;71241;13.676;100.700;2024-03-06T12:12:10;15.23;;;13.70;;
81807;SDS011;71241;13.676;100.700;2024-03-06T12:14:41;16.23;;;14.27;;
81807;SDS011;71241;13.676;100.700;2024-03-06T12:17:12;14.55;;;13.05;;
81807;SDS011;71241;13.676;100.700;2024-03-06T12:19:47;16.10;;;14.40;;
81807;SDS011;71241;13.676;100.700;2024-03-06T12:22:20;17.95;;;15.75;;
81807;SDS011;71241;13.676;100.700;2024-03-06T12:24:58;18.27;;;16.65;;
81807;SDS011;71241;13.676;100.700;2024-03-06T12:27:29;18.42;;;10.20;;
81807;SDS011;71241;13.676;100.700;2024-03-06T12:30:08;16.67;;;14.02;;
81807;SDS011;71241;13.676;100.700;2024-03-06T12:32:42;15.90;;;13.20;;
81807;SDS011;71241;13.676;100.700;2024-03-06T12:35:12;15.75;;;12.25;;
81807;SDS011;71241;13.676;100.700;2024-03-06T12:37:45;17.90;;;12.82;;
81807;SDS011;71241;13.676;100.700;2024-03-06T12:40:15;14.85;;;11.52;;
81807;SDS011;71241;13.676;100.700;2024-03-06T12:42:46;14.25;;;10.63;;
81807;SDS011;71241;13.676;100.700;2024-03-06T12:45:16;17.77;;;12.55;;
81807;SDS011;71241;13.676;100.700;2024-03-06T12:47:47;18.88;;;15.27;;
81807;SDS011;71241;13.676;100.700;2024-03-06T12:50:19;14.73;;;12.80;;
81807;SDS011;71241;13.676;100.700;2024-03-06T12:52:51;14.65;;;11.38;;
81807;SDS011;71241;13.676;100.700;2024-03-06T12:55:21;15.68;;;12.90;;
81807;SDS011;71241;13.676;100.700;2024-03-06T12:57:52;12.95;;;9.88;;
81807;SDS011;71241;13.676;100.700;2024-03-06T13:00:24;21.90;;;14.93;;
81807;SDS011;71241;13.676;100.700;2024-03-06T13:02:54;15.25;;;11.57;;
81807;SDS011;71241;13.676;100.700;2024-03-06T13:05:25;15.18;;;11.98;;
81807;SDS011;71241;13.676;100.700;2024-03-06T13:07:57;15.73;;;12.15;;
81807;SDS011;71241;13.676;100.700;2024-03-06T13:10:29;14.43;;;10.05;;
81807;SDS011;71241;13.676;100.700;2024-03-06T13:12:59;12.02;;;9.73;;
81807;SDS011;71241;13.676;100.700;2024-03-06T13:15:29;13.68;;;10.60;;
81807;SDS011;71241;13.676;100.700;2024-03-06T13:18:00;15.85;;;10.68;;
81807;SDS011;71241;13.676;100.700;2024-03-06T13:20:32;15.75;;;10.15;;
81807;SDS011;71241;13.676;100.700;2024-03-06T13:23:05;13.25;;;9.45;;
81807;SDS011;71241;13.676;100.700;2024-03-06T13:25:36;14.23;;;11.57;;
81807;SDS011;71241;13.676;100.700;2024-03-06T13:28:06;15.38;;;10.70;;
81807;SDS011;71241;13.676;100.700;2024-03-06T13:30:38;15.27;;;10.68;;
81807;SDS011;71241;13.676;100.700;2024-03-06T13:33:08;14.75;;;11.15;;
81807;SDS011;71241;13.676;100.700;2024-03-06T13:35:40;12.88;;;9.88;;
81807;SDS011;71241;13.676;100.700;2024-03-06T13:38:13;12.38;;;11.05;;
81807;SDS011;71241;13.676;100.700;2024-03-06T13:40:44;14.30;;;11.27;;
81807;SDS011;71241;13.676;100.700;2024-03-06T13:43:14;17.92;;;12.13;;
81807;SDS011;71241;13.676;100.700;2024-03-06T13:45:48;14.88;;;10.32;;
81807;SDS011;71241;13.676;100.700;2024-03-06T13:48:19;13.60;;;11.13;;
81807;SDS011;71241;13.676;100.700;2024-03-06T13:50:51;19.80;;;10.40;;
81807;SDS011;71241;13.676;100.700;2024-03-06T13:53:24;15.88;;;11.07;;
81807;SDS011;71241;13.676;100.700;2024-03-06T13:55:54;14.82;;;11.00;;
81807;SDS011;71241;13.676;100.700;2024-03-06T13:58:26;15.90;;;10.38;;
81807;SDS011;71241;13.676;100.700;2024-03-06T14:00:56;17.08;;;13.02;;
81807;SDS011;71241;13.676;100.700;2024-03-06T14:03:27;12.88;;;11.30;;
81807;SDS011;71241;13.676;100.700;2024-03-06T14:05:57;16.38;;;12.40;;
81807;SDS011;71241;13.676;100.700;2024-03-06T14:08:30;13.80;;;10.25;;
81807;SDS011;71241;13.676;100.700;2024-03-06T14:11:00;16.70;;;10.90;;
81807;SDS011;71241;13.676;100.700;2024-03-06T14:13:34;16.50;;;9.82;;
81807;SDS011;71241;13.676;100.700;2024-03-06T14:16:05;17.80;;;10.43;;
81807;SDS011;71241;13.676;100.700;2024-03-06T14:18:35;13.27;;;10.57;;
81807;SDS011;71241;13.676;100.700;2024-03-06T14:21:07;15.68;;;10.00;;
81807;SDS011;71241;13.676;100.700;2024-03-06T14:23:39;16.15;;;9.95;;
81807;SDS011;71241;13.676;100.700;2024-03-06T14:26:10;15.18;;;9.98;;
81807;SDS011;71241;13.676;100.700;2024-03-06T14:28:40;15.18;;;9.50;;
81807;SDS011;71241;13.676;100.700;2024-03-06T14:31:17;14.73;;;9.82;;
81807;SDS011;71241;13.676;100.700;2024-03-06T14:33:49;19.25;;;14.95;;
81807;SDS011;71241;13.676;100.700;2024-03-06T14:36:20;20.08;;;14.30;;
81807;SDS011;71241;13.676;100.700;2024-03-06T14:38:58;17.65;;;10.18;;
81807;SDS011;71241;13.676;100.700;2024-03-06T14:41:30;15.25;;;10.80;;
81807;SDS011;71241;13.676;100.700;2024-03-06T14:44:01;14.65;;;10.43;;
81807;SDS011;71241;13.676;100.700;2024-03-06T14:46:33;16.20;;;11.80;;
81807;SDS011;71241;13.676;100.700;2024-03-06T14:49:03;14.15;;;11.90;;
81807;SDS011;71241;13.676;100.700;2024-03-06T14:51:34;14.60;;;11.02;;
81807;SDS011;71241;13.676;100.700;2024-03-06T14:54:06;13.65;;;12.23;;
81807;SDS011;71241;13.676;100.700;2024-03-06T14:56:37;14.88;;;10.90;;
81807;SDS011;71241;13.676;100.700;2024-03-06T14:59:08;15.40;;;13.07;;
81807;SDS011;71241;13.676;100.700;2024-03-06T15:01:39;15.68;;;10.93;;